sensor_id;sensor_type;location;lat;lon;timestamp;P1;durP1;ratioP1;P2;durP2;ratioP2
49440;SDS011;35317;51.978;6.296;2022-07-09T00:02:32;10.80;;;5.70;;
49440;SDS011;35317;51.978;6.296;2022-07-09T00:07:34;10.98;;;6.20;;
49440;SDS011;35317;51.978;6.296;2022-07-09T00:12:35;8.50;;;5.38;;
49440;SDS011;35317;51.978;6.296;2022-07-09T00:17:35;10.23;;;6.50;;
49440;SDS011;35317;51.978;6.296;2022-07-09T00:22:36;11.13;;;7.10;;
49440;SDS011;35317;51.978;6.296;2022-07-09T00:27:37;11.32;;;7.28;;
49440;SDS011;35317;51.978;6.296;2022-07-09T00:32:38;11.95;;;6.43;;
49440;SDS011;35317;51.978;6.296;2022-07-09T00:37:39;15.45;;;7.22;;
49440;SDS011;35317;51.978;6.296;2022-07-09T00:42:40;9.90;;;5.95;;
49440;SDS011;35317;51.978;6.296;2022-07-09T00:47:41;10.48;;;5.60;;
49440;SDS011;35317;51.978;6.296;2022-07-09T00:52:41;12.15;;;7.57;;
49440;SDS011;35317;51.978;6.296;2022-07-09T00:57:43;15.27;;;8.15;;
49440;SDS011;35317;51.978;6.296;2022-07-09T01:02:45;15.13;;;9.00;;
49440;SDS011;35317;51.978;6.296;2022-07-09T01:07:47;9.32;;;7.05;;
49440;SDS011;35317;51.978;6.296;2022-07-09T01:12:48;16.38;;;8.10;;
49440;SDS011;35317;51.978;6.296;2022-07-09T01:17:49;10.27;;;7.53;;
49440;SDS011;35317;51.978;6.296;2022-07-09T01:22:52;13.20;;;8.38;;
49440;SDS011;35317;51.978;6.296;2022-07-09T01:27:52;12.77;;;7.47;;
49440;SDS011;35317;51.978;6.296;2022-07-09T01:32:54;10.43;;;6.85;;
49440;SDS011;35317;51.978;6.296;2022-07-09T01:37:56;11.18;;;7.07;;
49440;SDS011;35317;51.978;6.296;2022-07-09T01:42:56;11.27;;;7.63;;
49440;SDS011;35317;51.978;6.296;2022-07-09T01:47:57;10.30;;;7.47;;
49440;SDS011;35317;51.978;6.296;2022-07-09T01:52:58;13.00;;;7.97;;
49440;SDS011;35317;51.978;6.296;2022-07-09T01:57:59;12.95;;;8.57;;
49440;SDS011;35317;51.978;6.296;2022-07-09T02:02:59;10.98;;;7.95;;
49440;SDS011;35317;51.978;6.296;2022-07-09T02:08:02;13.52;;;7.55;;
49440;SDS011;35317;51.978;6.296;2022-07-09T02:13:03;11.60;;;8.38;;
49440;SDS011;35317;51.978;6.296;2022-07-09T02:18:03;12.13;;;9.20;;
49440;SDS011;35317;51.978;6.296;2022-07-09T02:23:04;14.82;;;8.40;;
49440;SDS011;35317;51.978;6.296;2022-07-09T02:28:05;15.48;;;10.75;;
49440;SDS011;35317;51.978;6.296;2022-07-09T02:33:06;15.82;;;10.57;;
49440;SDS011;35317;51.978;6.296;2022-07-09T02:38:06;14.38;;;9.07;;
49440;SDS011;35317;51.978;6.296;2022-07-09T02:43:07;15.88;;;10.52;;
49440;SDS011;35317;51.978;6.296;2022-07-09T02:48:08;17.23;;;10.98;;
49440;SDS011;35317;51.978;6.296;2022-07-09T02:53:08;18.20;;;11.73;;
49440;SDS011;35317;51.978;6.296;2022-07-09T02:58:09;21.08;;;11.88;;
49440;SDS011;35317;51.978;6.296;2022-07-09T03:03:10;20.73;;;12.85;;
49440;SDS011;35317;51.978;6.296;2022-07-09T03:08:11;20.40;;;12.75;;
49440;SDS011;35317;51.978;6.296;2022-07-09T03:13:12;20.80;;;13.30;;
49440;SDS011;35317;51.978;6.296;2022-07-09T03:18:13;22.73;;;13.13;;
49440;SDS011;35317;51.978;6.296;2022-07-09T03:23:14;20.88;;;13.63;;
49440;SDS011;35317;51.978;6.296;2022-07-09T03:28:14;23.00;;;14.10;;
49440;SDS011;35317;51.978;6.296;2022-07-09T03:33:15;25.98;;;16.35;;
49440;SDS011;35317;51.978;6.296;2022-07-09T03:38:16;29.85;;;16.90;;
49440;SDS011;35317;51.978;6.296;2022-07-09T03:43:16;26.75;;;17.15;;
49440;SDS011;35317;51.978;6.296;2022-07-09T03:48:17;22.90;;;15.98;;
49440;SDS011;35317;51.978;6.296;2022-07-09T03:53:18;29.58;;;16.13;;
49440;SDS011;35317;51.978;6.296;2022-07-09T03:58:19;21.63;;;16.25;;
49440;SDS011;35317;51.978;6.296;2022-07-09T04:03:19;23.20;;;14.15;;
49440;SDS011;35317;51.978;6.296;2022-07-09T04:08:20;22.15;;;15.52;;
49440;SDS011;35317;51.978;6.296;2022-07-09T04:13:21;22.85;;;14.23;;
49440;SDS011;35317;51.978;6.296;2022-07-09T04:18:22;24.65;;;14.48;;
49440;SDS011;35317;51.978;6.296;2022-07-09T04:23:23;21.98;;;14.88;;
49440;SDS011;35317;51.978;6.296;2022-07-09T04:28:24;22.70;;;14.82;;
49440;SDS011;35317;51.978;6.296;2022-07-09T04:33:24;23.90;;;14.95;;
49440;SDS011;35317;51.978;6.296;2022-07-09T04:38:26;23.67;;;14.48;;
49440;SDS011;35317;51.978;6.296;2022-07-09T04:43:27;25.88;;;16.60;;
49440;SDS011;35317;51.978;6.296;2022-07-09T04:48:29;27.42;;;16.00;;
49440;SDS011;35317;51.978;6.296;2022-07-09T04:53:30;26.60;;;14.18;;
49440;SDS011;35317;51.978;6.296;2022-07-09T04:58:31;25.95;;;13.93;;
49440;SDS011;35317;51.978;6.296;2022-07-09T05:03:31;24.45;;;14.57;;
49440;SDS011;35317;51.978;6.296;2022-07-09T05:08:32;22.65;;;13.85;;
49440;SDS011;35317;51.978;6.296;2022-07-09T05:13:33;24.42;;;14.27;;
49440;SDS011;35317;51.978;6.296;2022-07-09T05:18:34;22.98;;;15.90;;
49440;SDS011;35317;51.978;6.296;2022-07-09T05:23:35;22.35;;;13.55;;
49440;SDS011;35317;51.978;6.296;2022-07-09T05:28:36;21.25;;;13.88;;
49440;SDS011;35317;51.978;6.296;2022-07-09T05:33:37;19.35;;;13.98;;
49440;SDS011;35317;51.978;6.296;2022-07-09T05:38:37;18.58;;;13.48;;
49440;SDS011;35317;51.978;6.296;2022-07-09T05:43:38;19.95;;;13.43;;
49440;SDS011;35317;51.978;6.296;2022-07-09T05:48:39;15.40;;;12.18;;
49440;SDS011;35317;51.978;6.296;2022-07-09T05:53:40;20.85;;;13.25;;
49440;SDS011;35317;51.978;6.296;2022-07-09T05:58:41;16.83;;;12.20;;
49440;SDS011;35317;51.978;6.296;2022-07-09T06:03:42;18.02;;;11.43;;
49440;SDS011;35317;51.978;6.296;2022-07-09T06:08:43;16.08;;;11.45;;
49440;SDS011;35317;51.978;6.296;2022-07-09T06:13:43;18.88;;;11.05;;
49440;SDS011;35317;51.978;6.296;2022-07-09T06:18:44;16.67;;;10.80;;
49440;SDS011;35317;51.978;6.296;2022-07-09T06:23:45;16.35;;;11.38;;
49440;SDS011;35317;51.978;6.296;2022-07-09T06:28:45;14.38;;;10.55;;
49440;SDS011;35317;51.978;6.296;2022-07-09T06:33:47;19.27;;;10.95;;
49440;SDS011;35317;51.978;6.296;2022-07-09T06:38:48;13.93;;;10.43;;
49440;SDS011;35317;51.978;6.296;2022-07-09T06:44:07;13.30;;;9.93;;
49440;SDS011;35317;51.978;6.296;2022-07-09T06:49:07;13.57;;;9.43;;
49440;SDS011;35317;51.978;6.296;2022-07-09T06:54:08;12.15;;;8.93;;
49440;SDS011;35317;51.978;6.296;2022-07-09T06:59:09;11.23;;;8.20;;
49440;SDS011;35317;51.978;6.296;2022-07-09T07:04:10;10.95;;;7.75;;
49440;SDS011;35317;51.978;6.296;2022-07-09T07:09:12;12.27;;;9.03;;
49440;SDS011;35317;51.978;6.296;2022-07-09T07:14:14;12.95;;;8.95;;
49440;SDS011;35317;51.978;6.296;2022-07-09T07:19:15;12.65;;;8.48;;
49440;SDS011;35317;51.978;6.296;2022-07-09T07:24:17;10.93;;;8.32;;
49440;SDS011;35317;51.978;6.296;2022-07-09T07:29:17;11.15;;;7.57;;
49440;SDS011;35317;51.978;6.296;2022-07-09T07:34:18;8.98;;;6.35;;
49440;SDS011;35317;51.978;6.296;2022-07-09T07:44:24;7.32;;;5.82;;
49440;SDS011;35317;51.978;6.296;2022-07-09T07:49:25;6.78;;;5.55;;
49440;SDS011;35317;51.978;6.296;2022-07-09T07:54:26;7.38;;;5.03;;
49440;SDS011;35317;51.978;6.296;2022-07-09T07:59:27;7.25;;;5.82;;
49440;SDS011;35317;51.978;6.296;2022-07-09T08:04:27;5.20;;;4.05;;
49440;SDS011;35317;51.978;6.296;2022-07-09T08:09:28;5.60;;;3.95;;
49440;SDS011;35317;51.978;6.296;2022-07-09T08:14:29;7.13;;;4.45;;
49440;SDS011;35317;51.978;6.296;2022-07-09T08:19:30;7.85;;;5.13;;
49440;SDS011;35317;51.978;6.296;2022-07-09T08:24:30;4.95;;;3.95;;
49440;SDS011;35317;51.978;6.296;2022-07-09T08:29:31;5.45;;;3.58;;
49440;SDS011;35317;51.978;6.296;2022-07-09T08:34:32;4.90;;;3.13;;
49440;SDS011;35317;51.978;6.296;2022-07-09T08:39:33;4.78;;;3.55;;
49440;SDS011;35317;51.978;6.296;2022-07-09T08:44:33;8.23;;;4.65;;
49440;SDS011;35317;51.978;6.296;2022-07-09T08:49:38;9.40;;;5.50;;
49440;SDS011;35317;51.978;6.296;2022-07-09T08:54:39;6.32;;;4.07;;
49440;SDS011;35317;51.978;6.296;2022-07-09T08:59:42;10.00;;;4.40;;
49440;SDS011;35317;51.978;6.296;2022-07-09T09:04:43;7.65;;;4.40;;
49440;SDS011;35317;51.978;6.296;2022-07-09T09:09:44;5.80;;;3.50;;
49440;SDS011;35317;51.978;6.296;2022-07-09T09:14:49;8.30;;;3.40;;
49440;SDS011;35317;51.978;6.296;2022-07-09T09:19:52;5.88;;;3.25;;
49440;SDS011;35317;51.978;6.296;2022-07-09T09:24:53;8.27;;;3.03;;
49440;SDS011;35317;51.978;6.296;2022-07-09T09:29:53;7.95;;;3.25;;
49440;SDS011;35317;51.978;6.296;2022-07-09T09:35:01;4.18;;;3.13;;
49440;SDS011;35317;51.978;6.296;2022-07-09T09:40:10;5.85;;;2.90;;
49440;SDS011;35317;51.978;6.296;2022-07-09T09:45:12;7.18;;;3.10;;
49440;SDS011;35317;51.978;6.296;2022-07-09T09:50:21;4.38;;;2.58;;
49440;SDS011;35317;51.978;6.296;2022-07-09T09:55:24;4.32;;;3.00;;
49440;SDS011;35317;51.978;6.296;2022-07-09T10:00:25;3.35;;;2.55;;
49440;SDS011;35317;51.978;6.296;2022-07-09T10:05:27;2.85;;;2.38;;
49440;SDS011;35317;51.978;6.296;2022-07-09T10:10:28;5.25;;;4.03;;
49440;SDS011;35317;51.978;6.296;2022-07-09T10:15:31;7.65;;;4.20;;
49440;SDS011;35317;51.978;6.296;2022-07-09T10:20:34;6.93;;;4.72;;
49440;SDS011;35317;51.978;6.296;2022-07-09T10:25:44;8.93;;;5.25;;
49440;SDS011;35317;51.978;6.296;2022-07-09T10:30:46;5.40;;;4.32;;
49440;SDS011;35317;51.978;6.296;2022-07-09T10:35:51;7.75;;;4.50;;
49440;SDS011;35317;51.978;6.296;2022-07-09T10:40:57;7.95;;;4.50;;
49440;SDS011;35317;51.978;6.296;2022-07-09T10:45:58;6.50;;;3.60;;
49440;SDS011;35317;51.978;6.296;2022-07-09T10:51:19;7.55;;;3.00;;
49440;SDS011;35317;51.978;6.296;2022-07-09T10:56:22;3.78;;;2.08;;
49440;SDS011;35317;51.978;6.296;2022-07-09T11:01:23;2.25;;;1.60;;
49440;SDS011;35317;51.978;6.296;2022-07-09T11:06:27;1.63;;;1.52;;
49440;SDS011;35317;51.978;6.296;2022-07-09T11:11:29;3.15;;;1.30;;
49440;SDS011;35317;51.978;6.296;2022-07-09T11:16:29;5.18;;;1.70;;
49440;SDS011;35317;51.978;6.296;2022-07-09T11:21:32;2.65;;;1.50;;
49440;SDS011;35317;51.978;6.296;2022-07-09T11:26:32;4.13;;;1.42;;
49440;SDS011;35317;51.978;6.296;2022-07-09T11:31:34;1.65;;;1.10;;
49440;SDS011;35317;51.978;6.296;2022-07-09T11:36:39;2.05;;;1.30;;
49440;SDS011;35317;51.978;6.296;2022-07-09T11:41:42;3.45;;;1.13;;
49440;SDS011;35317;51.978;6.296;2022-07-09T11:46:44;2.17;;;1.20;;
49440;SDS011;35317;51.978;6.296;2022-07-09T11:51:45;2.78;;;1.65;;
49440;SDS011;35317;51.978;6.296;2022-07-09T11:56:46;3.38;;;1.00;;
49440;SDS011;35317;51.978;6.296;2022-07-09T12:01:47;5.05;;;0.90;;
49440;SDS011;35317;51.978;6.296;2022-07-09T12:06:49;1.50;;;0.80;;
49440;SDS011;35317;51.978;6.296;2022-07-09T12:11:50;1.65;;;0.77;;
49440;SDS011;35317;51.978;6.296;2022-07-09T12:16:51;3.95;;;1.27;;
49440;SDS011;35317;51.978;6.296;2022-07-09T12:21:52;2.33;;;0.95;;
49440;SDS011;35317;51.978;6.296;2022-07-09T12:26:53;0.98;;;0.60;;
49440;SDS011;35317;51.978;6.296;2022-07-09T12:31:54;1.92;;;0.82;;
49440;SDS011;35317;51.978;6.296;2022-07-09T12:36:54;2.17;;;0.75;;
49440;SDS011;35317;51.978;6.296;2022-07-09T12:41:55;2.95;;;0.70;;
49440;SDS011;35317;51.978;6.296;2022-07-09T12:46:56;1.15;;;0.70;;
49440;SDS011;35317;51.978;6.296;2022-07-09T12:51:57;3.92;;;0.70;;
49440;SDS011;35317;51.978;6.296;2022-07-09T12:56:58;2.15;;;0.68;;
49440;SDS011;35317;51.978;6.296;2022-07-09T13:01:58;2.97;;;0.90;;
49440;SDS011;35317;51.978;6.296;2022-07-09T13:06:59;2.42;;;0.70;;
49440;SDS011;35317;51.978;6.296;2022-07-09T13:12:02;1.67;;;0.60;;
49440;SDS011;35317;51.978;6.296;2022-07-09T13:17:05;4.50;;;0.73;;
49440;SDS011;35317;51.978;6.296;2022-07-09T13:22:05;2.22;;;1.02;;
49440;SDS011;35317;51.978;6.296;2022-07-09T13:27:09;1.70;;;0.60;;
49440;SDS011;35317;51.978;6.296;2022-07-09T13:32:10;1.48;;;0.57;;
49440;SDS011;35317;51.978;6.296;2022-07-09T13:37:11;2.70;;;0.75;;
49440;SDS011;35317;51.978;6.296;2022-07-09T13:42:12;2.25;;;0.70;;
49440;SDS011;35317;51.978;6.296;2022-07-09T13:47:13;2.22;;;0.65;;
49440;SDS011;35317;51.978;6.296;2022-07-09T13:52:14;2.00;;;0.60;;
49440;SDS011;35317;51.978;6.296;2022-07-09T13:57:15;3.13;;;1.10;;
49440;SDS011;35317;51.978;6.296;2022-07-09T14:02:16;1.75;;;0.68;;
49440;SDS011;35317;51.978;6.296;2022-07-09T14:07:17;1.35;;;0.52;;
49440;SDS011;35317;51.978;6.296;2022-07-09T14:12:17;0.82;;;0.50;;
49440;SDS011;35317;51.978;6.296;2022-07-09T14:17:19;1.38;;;0.60;;
49440;SDS011;35317;51.978;6.296;2022-07-09T14:22:20;1.13;;;0.50;;
49440;SDS011;35317;51.978;6.296;2022-07-09T14:27:20;1.73;;;0.70;;
49440;SDS011;35317;51.978;6.296;2022-07-09T14:32:21;1.00;;;0.52;;
49440;SDS011;35317;51.978;6.296;2022-07-09T14:37:22;3.42;;;0.90;;
49440;SDS011;35317;51.978;6.296;2022-07-09T14:42:23;3.22;;;0.75;;
49440;SDS011;35317;51.978;6.296;2022-07-09T14:47:23;5.28;;;1.30;;
49440;SDS011;35317;51.978;6.296;2022-07-09T14:52:24;5.35;;;1.05;;
49440;SDS011;35317;51.978;6.296;2022-07-09T14:57:25;5.15;;;1.10;;
49440;SDS011;35317;51.978;6.296;2022-07-09T15:02:26;4.30;;;1.27;;
49440;SDS011;35317;51.978;6.296;2022-07-09T15:07:27;5.43;;;1.10;;
49440;SDS011;35317;51.978;6.296;2022-07-09T15:12:28;7.28;;;1.35;;
49440;SDS011;35317;51.978;6.296;2022-07-09T15:17:28;5.47;;;1.45;;
49440;SDS011;35317;51.978;6.296;2022-07-09T15:22:29;5.00;;;1.15;;
49440;SDS011;35317;51.978;6.296;2022-07-09T15:27:30;6.70;;;1.05;;
49440;SDS011;35317;51.978;6.296;2022-07-09T15:32:31;5.53;;;1.50;;
49440;SDS011;35317;51.978;6.296;2022-07-09T15:37:32;4.28;;;1.50;;
49440;SDS011;35317;51.978;6.296;2022-07-09T15:42:33;5.43;;;1.42;;
49440;SDS011;35317;51.978;6.296;2022-07-09T15:47:34;3.78;;;1.05;;
49440;SDS011;35317;51.978;6.296;2022-07-09T15:52:35;6.28;;;1.20;;
49440;SDS011;35317;51.978;6.296;2022-07-09T15:57:41;24.35;;;16.55;;
49440;SDS011;35317;51.978;6.296;2022-07-09T16:02:42;7.10;;;1.52;;
49440;SDS011;35317;51.978;6.296;2022-07-09T16:07:43;5.50;;;2.42;;
49440;SDS011;35317;51.978;6.296;2022-07-09T16:12:43;2.83;;;1.25;;
49440;SDS011;35317;51.978;6.296;2022-07-09T16:17:50;4.45;;;1.40;;
49440;SDS011;35317;51.978;6.296;2022-07-09T16:22:53;4.77;;;1.20;;
49440;SDS011;35317;51.978;6.296;2022-07-09T16:27:53;5.25;;;2.28;;
49440;SDS011;35317;51.978;6.296;2022-07-09T16:32:54;7.57;;;1.20;;
49440;SDS011;35317;51.978;6.296;2022-07-09T16:37:55;15.13;;;6.57;;
49440;SDS011;35317;51.978;6.296;2022-07-09T16:42:56;4.93;;;1.70;;
49440;SDS011;35317;51.978;6.296;2022-07-09T16:47:56;5.60;;;2.67;;
49440;SDS011;35317;51.978;6.296;2022-07-09T16:52:57;6.53;;;2.00;;
49440;SDS011;35317;51.978;6.296;2022-07-09T16:57:58;4.80;;;1.30;;
49440;SDS011;35317;51.978;6.296;2022-07-09T17:02:59;3.85;;;1.10;;
49440;SDS011;35317;51.978;6.296;2022-07-09T17:08:00;6.13;;;1.23;;
49440;SDS011;35317;51.978;6.296;2022-07-09T17:13:00;7.72;;;1.48;;
49440;SDS011;35317;51.978;6.296;2022-07-09T17:18:02;5.07;;;0.90;;
49440;SDS011;35317;51.978;6.296;2022-07-09T17:23:04;4.10;;;1.63;;
49440;SDS011;35317;51.978;6.296;2022-07-09T17:28:05;4.50;;;1.20;;
49440;SDS011;35317;51.978;6.296;2022-07-09T17:33:06;3.60;;;1.30;;
49440;SDS011;35317;51.978;6.296;2022-07-09T17:38:06;4.13;;;1.05;;
49440;SDS011;35317;51.978;6.296;2022-07-09T17:43:09;5.68;;;1.13;;
49440;SDS011;35317;51.978;6.296;2022-07-09T17:48:28;6.88;;;1.52;;
49440;SDS011;35317;51.978;6.296;2022-07-09T17:53:31;8.02;;;1.35;;
49440;SDS011;35317;51.978;6.296;2022-07-09T17:58:36;7.50;;;1.70;;
49440;SDS011;35317;51.978;6.296;2022-07-09T18:03:37;7.13;;;1.40;;
49440;SDS011;35317;51.978;6.296;2022-07-09T18:08:38;9.13;;;1.35;;
49440;SDS011;35317;51.978;6.296;2022-07-09T18:13:39;5.00;;;1.20;;
49440;SDS011;35317;51.978;6.296;2022-07-09T18:18:41;8.45;;;1.63;;
49440;SDS011;35317;51.978;6.296;2022-07-09T18:23:42;8.93;;;1.50;;
49440;SDS011;35317;51.978;6.296;2022-07-09T18:28:44;3.88;;;1.20;;
49440;SDS011;35317;51.978;6.296;2022-07-09T18:33:45;6.53;;;1.33;;
49440;SDS011;35317;51.978;6.296;2022-07-09T18:38:46;5.00;;;0.80;;
49440;SDS011;35317;51.978;6.296;2022-07-09T18:43:48;4.38;;;0.95;;
49440;SDS011;35317;51.978;6.296;2022-07-09T18:48:49;5.40;;;1.05;;
49440;SDS011;35317;51.978;6.296;2022-07-09T18:53:49;6.07;;;1.20;;
49440;SDS011;35317;51.978;6.296;2022-07-09T18:58:50;9.07;;;2.35;;
49440;SDS011;35317;51.978;6.296;2022-07-09T19:03:51;5.60;;;1.45;;
49440;SDS011;35317;51.978;6.296;2022-07-09T19:08:52;7.85;;;1.30;;
49440;SDS011;35317;51.978;6.296;2022-07-09T19:13:53;5.18;;;1.20;;
49440;SDS011;35317;51.978;6.296;2022-07-09T19:18:53;4.80;;;0.93;;
49440;SDS011;35317;51.978;6.296;2022-07-09T19:23:54;5.57;;;0.90;;
49440;SDS011;35317;51.978;6.296;2022-07-09T19:28:55;6.57;;;1.00;;
49440;SDS011;35317;51.978;6.296;2022-07-09T19:33:55;4.50;;;1.10;;
49440;SDS011;35317;51.978;6.296;2022-07-09T19:38:59;3.78;;;0.70;;
49440;SDS011;35317;51.978;6.296;2022-07-09T19:44:01;4.55;;;1.13;;
49440;SDS011;35317;51.978;6.296;2022-07-09T19:49:07;6.60;;;1.23;;
49440;SDS011;35317;51.978;6.296;2022-07-09T19:54:07;5.13;;;1.75;;
49440;SDS011;35317;51.978;6.296;2022-07-09T19:59:08;4.65;;;1.10;;
49440;SDS011;35317;51.978;6.296;2022-07-09T20:04:09;7.70;;;1.50;;
49440;SDS011;35317;51.978;6.296;2022-07-09T20:09:10;7.60;;;1.08;;
49440;SDS011;35317;51.978;6.296;2022-07-09T20:14:11;5.00;;;1.40;;
49440;SDS011;35317;51.978;6.296;2022-07-09T20:19:11;6.43;;;1.00;;
49440;SDS011;35317;51.978;6.296;2022-07-09T20:24:12;2.75;;;0.73;;
49440;SDS011;35317;51.978;6.296;2022-07-09T20:29:16;6.80;;;0.90;;
49440;SDS011;35317;51.978;6.296;2022-07-09T20:34:17;2.75;;;0.85;;
49440;SDS011;35317;51.978;6.296;2022-07-09T20:39:18;7.32;;;1.42;;
49440;SDS011;35317;51.978;6.296;2022-07-09T20:44:18;6.55;;;1.15;;
49440;SDS011;35317;51.978;6.296;2022-07-09T20:49:19;6.95;;;1.02;;
49440;SDS011;35317;51.978;6.296;2022-07-09T20:54:20;8.10;;;1.48;;
49440;SDS011;35317;51.978;6.296;2022-07-09T20:59:21;6.53;;;1.00;;
49440;SDS011;35317;51.978;6.296;2022-07-09T21:04:21;8.10;;;1.83;;
49440;SDS011;35317;51.978;6.296;2022-07-09T21:09:22;9.52;;;1.27;;
49440;SDS011;35317;51.978;6.296;2022-07-09T21:14:23;5.10;;;1.55;;
49440;SDS011;35317;51.978;6.296;2022-07-09T21:19:24;3.95;;;1.50;;
49440;SDS011;35317;51.978;6.296;2022-07-09T21:24:25;9.60;;;1.80;;
49440;SDS011;35317;51.978;6.296;2022-07-09T21:29:26;8.68;;;2.42;;
49440;SDS011;35317;51.978;6.296;2022-07-09T21:34:27;11.68;;;2.60;;
49440;SDS011;35317;51.978;6.296;2022-07-09T21:39:28;5.32;;;1.92;;
49440;SDS011;35317;51.978;6.296;2022-07-09T21:44:29;9.07;;;1.90;;
49440;SDS011;35317;51.978;6.296;2022-07-09T21:49:31;7.63;;;1.73;;
49440;SDS011;35317;51.978;6.296;2022-07-09T21:54:32;6.93;;;1.83;;
49440;SDS011;35317;51.978;6.296;2022-07-09T21:59:33;5.22;;;1.83;;
49440;SDS011;35317;51.978;6.296;2022-07-09T22:04:34;7.32;;;2.05;;
49440;SDS011;35317;51.978;6.296;2022-07-09T22:09:35;6.85;;;1.17;;
49440;SDS011;35317;51.978;6.296;2022-07-09T22:14:36;8.18;;;1.17;;
49440;SDS011;35317;51.978;6.296;2022-07-09T22:19:37;8.10;;;2.08;;
49440;SDS011;35317;51.978;6.296;2022-07-09T22:24:38;8.35;;;1.33;;
49440;SDS011;35317;51.978;6.296;2022-07-09T22:29:39;4.25;;;0.85;;
49440;SDS011;35317;51.978;6.296;2022-07-09T22:34:39;7.88;;;1.17;;
49440;SDS011;35317;51.978;6.296;2022-07-09T22:39:42;8.73;;;1.30;;
49440;SDS011;35317;51.978;6.296;2022-07-09T22:44:43;9.20;;;1.50;;
49440;SDS011;35317;51.978;6.296;2022-07-09T22:49:44;6.13;;;1.10;;
49440;SDS011;35317;51.978;6.296;2022-07-09T22:54:44;5.50;;;1.10;;
49440;SDS011;35317;51.978;6.296;2022-07-09T22:59:46;8.48;;;1.35;;
49440;SDS011;35317;51.978;6.296;2022-07-09T23:04:46;7.03;;;1.45;;
49440;SDS011;35317;51.978;6.296;2022-07-09T23:09:47;9.55;;;2.35;;
49440;SDS011;35317;51.978;6.296;2022-07-09T23:14:48;5.78;;;1.33;;
49440;SDS011;35317;51.978;6.296;2022-07-09T23:19:49;7.32;;;1.52;;
49440;SDS011;35317;51.978;6.296;2022-07-09T23:24:50;6.32;;;1.35;;
49440;SDS011;35317;51.978;6.296;2022-07-09T23:29:53;8.90;;;1.40;;
49440;SDS011;35317;51.978;6.296;2022-07-09T23:34:54;6.25;;;1.50;;
49440;SDS011;35317;51.978;6.296;2022-07-09T23:39:55;6.97;;;1.10;;
49440;SDS011;35317;51.978;6.296;2022-07-09T23:44:55;6.55;;;1.30;;
49440;SDS011;35317;51.978;6.296;2022-07-09T23:49:56;6.60;;;1.13;;
49440;SDS011;35317;51.978;6.296;2022-07-09T23:54:57;9.93;;;2.35;;
49440;SDS011;35317;51.978;6.296;2022-07-09T23:59:57;10.65;;;0.95;;
